createdAt,value
2022-09-17T00:04:23.633Z,16.85
2022-09-17T00:06:51.015Z,15.27
2022-09-17T00:12:32.625Z,14.77
2022-09-17T00:15:00.916Z,14.05
2022-09-17T00:17:28.796Z,13.95
2022-09-17T00:19:56.687Z,13.70
2022-09-17T00:25:17.004Z,19.48
2022-09-17T00:27:45.567Z,21.83
2022-09-17T00:30:13.647Z,28.70
2022-09-17T00:32:40.621Z,18.33
2022-09-17T00:35:08.800Z,22.88
2022-09-17T00:37:36.618Z,22.80
2022-09-17T00:40:05.243Z,16.95
2022-09-17T00:42:32.528Z,18.20
2022-09-17T00:45:01.152Z,14.55
2022-09-17T00:47:39.714Z,15.88
2022-09-17T00:50:09.789Z,17.33
2022-09-17T00:52:41.565Z,18.00
2022-09-17T00:55:31.889Z,19.08
2022-09-17T00:58:26.512Z,20.08
2022-09-17T01:00:55.061Z,17.10
2022-09-17T01:03:22.826Z,20.48
2022-09-17T01:06:13.624Z,13.60
2022-09-17T01:08:59.021Z,19.02
2022-09-17T01:11:54.733Z,21.80
2022-09-17T01:14:25.538Z,14.85
2022-09-17T01:17:30.602Z,16.83
2022-09-17T01:20:23.094Z,13.35
2022-09-17T01:23:07.611Z,22.42
2022-09-17T01:26:10.160Z,18.48
2022-09-17T01:28:38.671Z,11.95
2022-09-17T01:31:17.609Z,13.10
2022-09-17T01:34:19.411Z,10.15
2022-09-17T01:40:41.978Z,17.23
2022-09-17T01:43:18.121Z,19.05
2022-09-17T01:46:04.420Z,12.35
2022-09-17T01:48:36.220Z,19.15
2022-09-17T01:51:07.748Z,16.88
2022-09-17T01:53:59.339Z,13.02
2022-09-17T01:56:38.543Z,14.35
2022-09-17T01:59:33.233Z,18.98
2022-09-17T02:02:27.746Z,16.15
2022-09-17T02:05:47.992Z,13.48
2022-09-17T02:08:31.642Z,16.10
2022-09-17T02:11:11.619Z,12.73
2022-09-17T02:13:52.620Z,12.88
2022-09-17T02:16:29.365Z,20.13
2022-09-17T02:19:29.580Z,19.98
2022-09-17T02:22:24.350Z,15.88
2022-09-17T02:25:30.337Z,15.50
2022-09-17T02:28:43.071Z,11.85
2022-09-17T02:31:11.734Z,12.32
2022-09-17T03:02:51.692Z,23.13
2022-09-17T03:53:56.751Z,14.07
2022-09-17T03:56:29.841Z,14.85
2022-09-17T03:59:05.497Z,10.73
2022-09-17T04:01:33.411Z,9.27
2022-09-17T04:04:05.777Z,13.15
2022-09-17T04:06:32.792Z,11.82
2022-09-17T04:09:06.179Z,12.93
2022-09-17T04:39:50.135Z,11.10
2022-09-17T04:42:45.116Z,5.57
2022-09-17T04:45:17.872Z,11.00
2022-09-17T04:47:44.683Z,15.20
2022-09-17T04:50:43.488Z,13.95
2022-09-17T04:53:38.326Z,8.75
2022-09-17T05:20:05.287Z,17.58
2022-09-17T05:22:32.725Z,11.70
2022-09-17T05:25:00.460Z,8.73
2022-09-17T05:27:33.500Z,17.13
2022-09-17T05:30:05.667Z,15.73
2022-09-17T05:32:32.707Z,9.77
2022-09-17T05:35:06.032Z,12.02
2022-09-17T05:37:39.997Z,11.38
2022-09-17T05:40:09.327Z,18.85
2022-09-17T05:42:36.739Z,14.05
2022-09-17T05:45:05.715Z,9.45
2022-09-17T05:47:58.893Z,11.07
2022-09-17T05:50:27.548Z,13.13
2022-09-17T05:55:51.701Z,7.50
2022-09-17T05:58:19.752Z,10.52
2022-09-17T06:01:21.247Z,14.10
2022-09-17T06:03:48.820Z,11.20
2022-09-17T06:06:20.722Z,11.10
2022-09-17T06:08:48.734Z,13.90
2022-09-17T06:11:21.684Z,12.30
2022-09-17T06:13:49.956Z,6.00
2022-09-17T06:16:21.723Z,9.27
2022-09-17T06:18:50.327Z,12.27
2022-09-17T06:21:24.450Z,12.20
2022-09-17T06:23:56.776Z,14.48
2022-09-17T06:29:16.724Z,9.38
2022-09-17T06:35:03.210Z,14.57
2022-09-17T06:37:32.392Z,10.27
2022-09-17T06:40:01.005Z,7.50
2022-09-17T06:42:28.739Z,15.90
2022-09-17T06:45:00.432Z,14.77
2022-09-17T06:47:57.029Z,6.10
2022-09-17T06:50:25.574Z,12.85
2022-09-17T06:52:59.335Z,14.32
2022-09-17T07:32:37.976Z,7.13
2022-09-17T07:42:18.733Z,6.65
2022-09-17T07:44:47.363Z,7.28
2022-09-17T07:47:14.645Z,2.40
2022-09-17T07:49:46.574Z,4.47
2022-09-17T07:52:47.135Z,5.65
2022-09-17T07:55:15.305Z,5.47
2022-09-17T07:57:43.418Z,2.95
2022-09-17T08:04:32.701Z,4.90
2022-09-17T11:20:26.166Z,3.53
2022-09-17T12:14:20.005Z,5.60
2022-09-17T12:33:41.596Z,5.93
2022-09-17T12:36:28.931Z,2.90
2022-09-17T12:42:28.120Z,3.75
2022-09-17T12:48:06.893Z,4.25
2022-09-17T12:51:14.444Z,7.18
2022-09-17T12:54:09.065Z,4.47
2022-09-17T12:57:15.403Z,4.85
2022-09-17T13:00:05.277Z,5.40
2022-09-17T13:02:55.916Z,7.50
2022-09-17T14:16:43.254Z,2.45
2022-09-17T14:19:16.891Z,3.70
2022-09-17T14:22:05.560Z,3.88
2022-09-17T14:24:37.713Z,5.07
2022-09-17T14:27:29.413Z,1.70
2022-09-17T14:30:18.928Z,4.40
2022-09-17T14:32:59.670Z,2.63
2022-09-17T14:38:39.715Z,6.35
2022-09-17T14:41:18.138Z,4.70
2022-09-17T14:44:07.206Z,4.65
2022-09-17T14:46:47.537Z,3.88
2022-09-17T14:49:29.111Z,5.40
2022-09-17T14:51:58.458Z,4.40
2022-09-17T14:54:36.542Z,3.70
2022-09-17T14:57:26.293Z,2.00
2022-09-17T15:00:29.840Z,2.55
2022-09-17T15:03:01.312Z,2.47
2022-09-17T15:05:35.004Z,2.00
2022-09-17T15:08:17.749Z,1.98
2022-09-17T15:10:55.407Z,2.65
2022-09-17T15:13:28.875Z,2.60
2022-09-17T15:19:26.054Z,2.38
2022-09-17T15:22:21.785Z,3.97
2022-09-17T15:25:22.521Z,4.60
2022-09-17T15:27:54.213Z,2.17
2022-09-17T15:31:03.072Z,3.47
2022-09-17T15:33:32.251Z,1.70
2022-09-17T15:42:33.217Z,5.13
2022-09-17T15:45:42.609Z,4.55
2022-09-17T15:48:27.673Z,3.50
2022-09-17T15:51:04.453Z,3.10
2022-09-17T15:53:37.232Z,5.30
2022-09-17T15:56:18.838Z,4.75
2022-09-17T15:58:47.040Z,3.45
2022-09-17T16:01:16.816Z,3.33
2022-09-17T16:03:46.227Z,3.42
2022-09-17T16:09:56.927Z,5.57
2022-09-17T16:12:26.850Z,4.50
2022-09-17T16:14:56.805Z,5.78
2022-09-17T16:23:55.985Z,4.47
2022-09-17T16:26:29.756Z,1.88
2022-09-17T16:29:07.186Z,2.97
2022-09-17T16:31:43.327Z,4.60
2022-09-17T16:34:10.548Z,2.10
2022-09-17T16:36:42.872Z,5.03
2022-09-17T16:42:08.636Z,2.97
2022-09-17T16:53:27.790Z,2.75
2022-09-17T16:56:20.764Z,1.88
2022-09-17T16:59:09.876Z,4.70
2022-09-17T17:01:37.799Z,2.70
2022-09-17T17:04:05.280Z,1.67
2022-09-17T17:06:33.502Z,2.13
2022-09-17T17:09:01.104Z,2.30
2022-09-17T17:11:36.091Z,2.92
2022-09-17T17:16:56.723Z,2.63
2022-09-17T17:19:30.408Z,3.08
2022-09-17T17:21:59.129Z,3.50
2022-09-17T17:24:26.844Z,2.08
2022-09-17T17:26:54.824Z,3.03
2022-09-17T17:29:22.913Z,2.05
2022-09-17T17:35:07.551Z,2.47
2022-09-17T17:37:34.743Z,3.75
2022-09-17T17:40:26.826Z,2.25
2022-09-17T17:42:59.416Z,3.58
2022-09-17T17:45:26.809Z,2.13
2022-09-17T17:47:54.703Z,2.45
2022-09-17T17:53:14.572Z,3.35
2022-09-17T17:55:42.495Z,4.65
2022-09-17T17:58:15.476Z,2.63
2022-09-17T18:00:48.679Z,1.67
2022-09-17T18:03:16.791Z,2.22
2022-09-17T18:14:14.572Z,3.88
2022-09-17T18:16:42.531Z,3.05
2022-09-17T18:19:11.580Z,3.58
2022-09-17T18:21:38.766Z,8.10
2022-09-17T18:24:10.564Z,5.95
2022-09-17T18:26:42.529Z,3.25
2022-09-17T18:29:11.926Z,6.43
2022-09-17T18:31:38.785Z,3.50
2022-09-17T18:34:32.331Z,3.90
2022-09-17T18:37:00.725Z,4.10
2022-09-17T18:39:58.023Z,5.28
2022-09-17T18:42:16.858Z,5.45
2022-09-17T18:44:44.805Z,4.78
2022-09-17T18:47:12.561Z,4.53
2022-09-17T18:49:40.532Z,5.95
2022-09-17T18:52:12.565Z,5.20
2022-09-17T18:54:40.506Z,8.25
2022-09-17T18:57:08.705Z,4.78
2022-09-17T18:59:36.555Z,4.32
2022-09-17T19:02:04.607Z,3.70
2022-09-17T19:04:32.888Z,5.00
2022-09-17T19:07:00.905Z,4.40
2022-09-17T19:09:28.612Z,4.70
2022-09-17T19:12:22.244Z,8.07
2022-09-17T19:15:16.434Z,5.28
2022-09-17T19:17:45.196Z,6.05
2022-09-17T19:20:39.576Z,5.50
2022-09-17T19:23:07.390Z,6.35
2022-09-17T19:25:42.973Z,3.33
2022-09-17T19:28:10.482Z,6.97
2022-09-17T19:34:03.005Z,5.25
2022-09-17T19:36:30.791Z,6.20
2022-09-17T19:39:03.669Z,3.90
2022-09-17T19:41:33.980Z,4.80
2022-09-17T19:44:03.721Z,4.60
2022-09-17T19:55:44.778Z,9.73
2022-09-17T19:58:13.216Z,4.88
2022-09-17T20:00:51.667Z,7.18
2022-09-17T20:03:22.274Z,10.27
2022-09-17T20:05:50.647Z,8.15
2022-09-17T20:25:32.758Z,5.68
2022-09-17T20:28:01.748Z,7.20
2022-09-17T20:31:10.421Z,10.90
2022-09-17T20:36:40.588Z,8.88
2022-09-17T20:39:21.973Z,23.95
2022-09-17T20:42:41.441Z,37.63
2022-09-17T20:45:08.639Z,94.82
2022-09-17T20:48:00.583Z,25.63
2022-09-17T20:50:28.807Z,14.07
2022-09-17T20:52:56.559Z,26.77
2022-09-17T20:55:24.720Z,16.67
2022-09-17T20:57:53.964Z,11.73
2022-09-17T21:00:46.805Z,17.52
2022-09-17T21:03:17.876Z,16.13
2022-09-17T21:06:17.829Z,17.67
2022-09-17T21:08:53.028Z,16.88
2022-09-17T21:11:26.088Z,10.38
2022-09-17T21:14:00.583Z,14.27
2022-09-17T21:16:54.092Z,9.10
2022-09-17T21:19:25.365Z,13.52
2022-09-17T21:22:23.981Z,13.18
2022-09-17T21:27:44.681Z,23.52
2022-09-17T21:30:12.903Z,12.63
2022-09-17T21:32:41.036Z,11.38
2022-09-17T21:38:12.626Z,12.23
2022-09-17T21:40:45.940Z,10.38
2022-09-17T21:43:13.099Z,4.95
2022-09-17T21:45:44.636Z,14.23
2022-09-17T21:48:42.327Z,14.02
2022-09-17T21:54:13.724Z,6.25
2022-09-17T21:56:40.896Z,4.53
2022-09-17T21:59:11.719Z,11.27
2022-09-17T22:01:47.723Z,8.75
2022-09-17T22:04:19.892Z,9.70
2022-09-17T22:06:53.852Z,8.48
2022-09-17T22:09:34.462Z,6.60
2022-09-17T22:12:07.874Z,10.82
2022-09-17T22:14:34.549Z,10.77
2022-09-17T22:25:34.620Z,9.40
2022-09-17T22:28:28.850Z,8.43
2022-09-17T22:37:15.762Z,6.50
2022-09-17T22:39:42.552Z,8.88
2022-09-17T22:42:14.577Z,7.80
2022-09-17T22:44:42.611Z,6.22
2022-09-17T22:50:08.026Z,11.80
2022-09-17T22:52:40.298Z,7.38
2022-09-17T22:55:09.031Z,5.03
2022-09-17T22:58:50.486Z,8.48
2022-09-17T23:01:25.204Z,5.75
2022-09-17T23:03:58.085Z,9.00
2022-09-17T23:06:29.816Z,8.05
2022-09-17T23:09:02.764Z,4.22
2022-09-17T23:11:39.501Z,10.00
2022-09-17T23:17:07.670Z,9.90
2022-09-17T23:25:18.571Z,3.13
2022-09-17T23:27:50.525Z,6.65
2022-09-17T23:30:18.572Z,4.90
2022-09-17T23:32:46.730Z,6.45
2022-09-17T23:35:38.818Z,6.40
2022-09-17T23:38:06.606Z,6.15
2022-09-17T23:40:34.758Z,7.63
2022-09-17T23:43:31.732Z,6.45
2022-09-17T23:45:58.675Z,7.57
2022-09-17T23:48:26.517Z,7.97
2022-09-17T23:50:54.623Z,7.80
2022-09-17T23:53:22.565Z,11.13
2022-09-17T23:55:51.062Z,8.05
2022-09-17T23:58:18.707Z,7.55
